Time;durP1;ratioP1;P1;durP2;ratioP2;P2;SDS_P1;SDS_P2;PMS_P1;PMS_P2;Temp;Humidity;BMP_temperature;BMP_pressure;BME280_temperature;BME280_humidity;BME280_pressure;Samples;Min_cycle;Max_cycle;Signal;HPM_P1;HPM_P2
2023/03/13 00:01:23;;;;;;;80.47;19.35;;;4.00;100.00;;;;;;4980689;28;20046;-70
2023/03/13 00:03:50;;;;;;;67.10;19.40;;;4.00;100.00;;;;;;4979780;28;20064;-70
2023/03/13 00:06:17;;;;;;;60.33;19.52;;;4.00;100.00;;;;;;4980365;28;20057;-70
2023/03/13 00:08:44;;;;;;;73.82;18.60;;;4.10;100.00;;;;;;4974526;28;20053;-70
2023/03/13 00:11:14;;;;;;;57.80;17.05;;;4.10;100.00;;;;;;4981138;28;20054;-70
2023/03/13 00:13:42;;;;;;;52.03;17.50;;;4.10;100.00;;;;;;4981580;28;20165;-69
2023/03/13 00:16:11;;;;;;;70.93;17.55;;;4.10;100.00;;;;;;4980810;28;20051;-69
2023/03/13 00:18:43;;;;;;;64.47;18.42;;;4.10;100.00;;;;;;4979822;28;20387;-69
2023/03/13 00:21:09;;;;;;;61.40;18.48;;;4.10;100.00;;;;;;4982568;28;20042;-69
2023/03/13 00:23:37;;;;;;;67.55;18.02;;;4.10;100.00;;;;;;4983279;28;20046;-69
2023/03/13 00:26:07;;;;;;;64.93;17.90;;;4.10;100.00;;;;;;4983234;28;20052;-69
2023/03/13 00:28:35;;;;;;;71.07;18.90;;;4.10;100.00;;;;;;4982709;28;20056;-69
2023/03/13 00:31:05;;;;;;;69.38;19.88;;;4.10;100.00;;;;;;4983488;28;20050;-69
2023/03/13 00:33:33;;;;;;;83.60;18.63;;;4.20;100.00;;;;;;4973595;28;20058;-69
2023/03/13 00:36:03;;;;;;;63.25;17.73;;;4.20;100.00;;;;;;4977583;28;20729;-69
2023/03/13 00:38:30;;;;;;;65.18;18.23;;;4.20;100.00;;;;;;4976359;28;20046;-69
2023/03/13 00:41:01;;;;;;;65.22;17.85;;;4.30;100.00;;;;;;4980738;28;20062;-69
2023/03/13 00:43:28;;;;;;;72.25;17.92;;;4.30;100.00;;;;;;4982604;28;20046;-69
2023/03/13 00:45:55;;;;;;;64.63;16.08;;;4.40;100.00;;;;;;4979581;28;20053;-69
2023/03/13 00:48:23;;;;;;;64.50;17.17;;;4.40;100.00;;;;;;4981146;28;20050;-69
2023/03/13 00:50:50;;;;;;;62.40;17.48;;;4.40;100.00;;;;;;4981336;28;20066;-70
2023/03/13 00:53:17;;;;;;;58.42;17.55;;;4.40;100.00;;;;;;4983256;28;20065;-69
2023/03/13 00:55:54;;;;;;;87.28;17.90;;;4.40;100.00;;;;;;4980410;28;20057;-69
2023/03/13 00:58:22;;;;;;;56.38;16.58;;;4.50;100.00;;;;;;4982012;28;20757;-69
2023/03/13 01:00:49;;;;;;;61.40;15.48;;;4.50;100.00;;;;;;4981441;28;20503;-69
2023/03/13 01:03:16;;;;;;;63.95;16.23;;;4.60;100.00;;;;;;4981753;28;20050;-69
2023/03/13 01:05:43;;;;;;;66.40;16.50;;;4.70;100.00;;;;;;4980625;28;20056;-70
2023/03/13 01:08:10;;;;;;;71.88;15.23;;;4.70;100.00;;;;;;4980878;28;20065;-69
2023/03/13 01:10:37;;;;;;;76.68;15.20;;;4.80;100.00;;;;;;4980969;28;20054;-69
2023/03/13 01:13:05;;;;;;;79.20;16.02;;;4.80;100.00;;;;;;4980231;28;20419;-69
2023/03/13 01:15:35;;;;;;;66.22;16.45;;;4.80;100.00;;;;;;4981141;28;20179;-69
2023/03/13 01:18:02;;;;;;;63.83;15.90;;;4.80;100.00;;;;;;4980118;28;20353;-69
2023/03/13 01:20:30;;;;;;;68.20;15.27;;;4.70;100.00;;;;;;4980962;28;20046;-70
2023/03/13 01:22:56;;;;;;;62.80;15.02;;;4.80;100.00;;;;;;4981819;28;20476;-69
2023/03/13 01:25:23;;;;;;;70.35;16.38;;;4.80;100.00;;;;;;4978044;28;20458;-69
2023/03/13 01:27:50;;;;;;;76.55;17.02;;;4.80;100.00;;;;;;4977307;28;20102;-69
2023/03/13 01:30:17;;;;;;;59.65;14.60;;;4.80;100.00;;;;;;4979432;28;20662;-69
2023/03/13 01:32:44;;;;;;;62.17;15.93;;;4.80;100.00;;;;;;4978222;28;20054;-70
2023/03/13 01:35:11;;;;;;;61.55;15.00;;;4.80;100.00;;;;;;4977264;28;20181;-69
2023/03/13 01:37:38;;;;;;;61.47;15.23;;;4.80;100.00;;;;;;4984879;28;20277;-69
2023/03/13 01:40:05;;;;;;;58.63;15.48;;;4.80;100.00;;;;;;4980511;28;20050;-69
2023/03/13 01:42:54;;;;;;;72.65;14.60;;;4.80;100.00;;;;;;4982660;28;20042;-69
2023/03/13 01:45:53;;;;;;;64.75;14.02;;;4.80;100.00;;;;;;4981849;28;20046;-69
2023/03/13 01:48:24;;;;;;;67.55;14.05;;;4.80;100.00;;;;;;4983903;28;20062;-69
2023/03/13 01:50:53;;;;;;;64.65;14.13;;;4.90;100.00;;;;;;4982167;28;20066;-69
2023/03/13 01:53:19;;;;;;;49.78;13.95;;;4.90;100.00;;;;;;4983728;28;20534;-69
2023/03/13 01:55:46;;;;;;;70.38;15.60;;;4.90;100.00;;;;;;4984157;28;20050;-70
2023/03/13 01:58:14;;;;;;;54.20;13.55;;;4.90;100.00;;;;;;4983983;28;20054;-70
2023/03/13 02:00:42;;;;;;;83.82;16.13;;;4.90;100.00;;;;;;4980525;28;20466;-70
2023/03/13 02:03:16;;;;;;;57.17;14.45;;;4.90;100.00;;;;;;4985279;28;20050;-70
2023/03/13 02:05:45;;;;;;;70.18;15.43;;;4.90;100.00;;;;;;4978677;28;20039;-69
2023/03/13 02:08:21;;;;;;;64.57;15.45;;;4.90;100.00;;;;;;4985134;28;20058;-69
2023/03/13 02:11:20;;;;;;;60.80;14.02;;;4.90;100.00;;;;;;4983259;28;20387;-70
2023/03/13 02:13:48;;;;;;;82.00;15.32;;;4.80;100.00;;;;;;4963528;28;20054;-69
2023/03/13 02:16:16;;;;;;;68.93;14.40;;;4.80;100.00;;;;;;4984031;28;20050;-69
2023/03/13 02:18:43;;;;;;;74.68;15.50;;;4.70;100.00;;;;;;4982336;28;20061;-69
2023/03/13 02:21:32;;;;;;;70.22;15.35;;;4.70;100.00;;;;;;4978284;28;20104;-69
2023/03/13 02:24:26;;;;;;;66.90;14.10;;;4.70;100.00;;;;;;4979031;28;20458;-69
2023/03/13 02:26:53;;;;;;;65.75;15.20;;;4.70;100.00;;;;;;4981067;28;20051;-69
2023/03/13 02:29:20;;;;;;;68.85;16.65;;;4.60;100.00;;;;;;4990598;28;20057;-69
2023/03/13 02:31:47;;;;;;;64.38;15.95;;;4.60;100.00;;;;;;4983056;28;20712;-69
2023/03/13 02:34:20;;;;;;;48.83;15.60;;;4.60;100.00;;;;;;4982389;28;20181;-69
2023/03/13 02:36:48;;;;;;;60.25;16.02;;;4.60;100.00;;;;;;4981478;28;20057;-69
2023/03/13 02:39:18;;;;;;;85.72;17.85;;;4.60;100.00;;;;;;4984400;28;20057;-69
2023/03/13 02:41:47;;;;;;;78.03;18.42;;;4.60;100.00;;;;;;4983158;28;20057;-69
2023/03/13 02:44:13;;;;;;;67.20;18.98;;;4.60;100.00;;;;;;4981508;28;20691;-69
2023/03/13 02:46:51;;;;;;;76.97;18.35;;;4.60;100.00;;;;;;4981288;28;20530;-69
2023/03/13 02:49:25;;;;;;;67.32;16.98;;;4.60;100.00;;;;;;4982430;28;20058;-69
2023/03/13 02:51:54;;;;;;;78.37;18.30;;;4.60;100.00;;;;;;4983260;28;20194;-69
2023/03/13 02:54:29;;;;;;;73.13;17.83;;;4.60;100.00;;;;;;4979612;28;20309;-69
2023/03/13 02:56:59;;;;;;;80.57;18.13;;;4.60;100.00;;;;;;4980885;28;20054;-69
2023/03/13 02:59:26;;;;;;;78.32;18.60;;;4.60;100.00;;;;;;4983136;28;20053;-69
2023/03/13 03:01:53;;;;;;;72.75;16.95;;;4.60;100.00;;;;;;4981178;28;20047;-69
2023/03/13 03:04:22;;;;;;;75.53;18.05;;;4.60;100.00;;;;;;4983860;28;20509;-69
2023/03/13 03:06:50;;;;;;;65.35;18.92;;;4.60;100.00;;;;;;4979837;28;20069;-69
2023/03/13 03:09:18;;;;;;;72.25;18.30;;;4.60;100.00;;;;;;4982133;28;20058;-69
2023/03/13 03:11:45;;;;;;;82.80;19.05;;;4.60;100.00;;;;;;4981249;28;20057;-70
2023/03/13 03:14:12;;;;;;;62.75;17.33;;;4.60;100.00;;;;;;4981540;28;20054;-70
2023/03/13 03:16:39;;;;;;;63.40;17.15;;;4.70;100.00;;;;;;4983048;28;20054;-70
2023/03/13 03:19:07;;;;;;;68.72;17.30;;;4.70;100.00;;;;;;4983772;28;20050;-69
2023/03/13 03:21:33;;;;;;;64.07;17.27;;;4.70;100.00;;;;;;4982172;28;20427;-69
2023/03/13 03:24:00;;;;;;;76.15;17.65;;;4.70;100.00;;;;;;4983911;28;20342;-69
2023/03/13 03:26:28;;;;;;;75.20;16.38;;;4.70;100.00;;;;;;4985605;28;20507;-69
2023/03/13 03:28:55;;;;;;;61.15;16.10;;;4.70;100.00;;;;;;4981792;28;20668;-69
2023/03/13 03:31:22;;;;;;;89.75;16.63;;;4.80;100.00;;;;;;4980544;28;20046;-69
2023/03/13 03:33:49;;;;;;;79.25;17.02;;;4.80;100.00;;;;;;4981477;28;20050;-69
2023/03/13 03:36:19;;;;;;;64.07;15.70;;;4.80;100.00;;;;;;4982804;28;20051;-69
2023/03/13 03:38:46;;;;;;;69.75;15.68;;;4.80;100.00;;;;;;4983165;28;20050;-69
2023/03/13 03:41:14;;;;;;;72.13;18.83;;;4.80;100.00;;;;;;4979996;28;20503;-69
2023/03/13 03:43:41;;;;;;;59.10;15.70;;;4.80;100.00;;;;;;4995983;28;20292;-69
2023/03/13 03:46:09;;;;;;;62.60;15.50;;;4.80;100.00;;;;;;4980734;28;20050;-69
2023/03/13 03:48:36;;;;;;;66.38;16.10;;;4.80;100.00;;;;;;4983376;28;20046;-69
2023/03/13 03:51:03;;;;;;;65.03;15.15;;;4.90;100.00;;;;;;4979986;28;20089;-69
2023/03/13 03:53:31;;;;;;;62.00;15.05;;;4.90;100.00;;;;;;4981748;28;20054;-69
2023/03/13 03:55:58;;;;;;;57.85;15.32;;;4.90;100.00;;;;;;4980070;28;20133;-69
2023/03/13 03:58:25;;;;;;;63.10;15.70;;;4.90;100.00;;;;;;4981589;28;20100;-69
2023/03/13 04:00:51;;;;;;;58.47;14.43;;;4.90;100.00;;;;;;4980518;28;20057;-69
2023/03/13 04:03:18;;;;;;;65.03;14.85;;;4.90;100.00;;;;;;4979627;28;20049;-69
2023/03/13 04:05:45;;;;;;;58.10;13.90;;;4.90;100.00;;;;;;4983480;28;20555;-69
2023/03/13 04:08:13;;;;;;;67.32;14.65;;;5.00;100.00;;;;;;4981883;28;20218;-69
2023/03/13 04:10:40;;;;;;;70.90;13.13;;;5.00;100.00;;;;;;4982513;28;20046;-69
2023/03/13 04:13:07;;;;;;;69.70;13.65;;;5.00;100.00;;;;;;4982440;28;20061;-69
2023/03/13 04:15:34;;;;;;;71.43;11.70;;;4.90;100.00;;;;;;4981462;28;20465;-69
2023/03/13 04:18:00;;;;;;;51.15;12.38;;;5.00;100.00;;;;;;4980141;28;20550;-69
2023/03/13 04:20:27;;;;;;;49.38;12.30;;;5.00;100.00;;;;;;4981004;28;20047;-69
2023/03/13 04:22:54;;;;;;;54.03;12.23;;;5.00;100.00;;;;;;4980485;28;20046;-69
2023/03/13 04:25:21;;;;;;;76.32;11.77;;;5.00;100.00;;;;;;4985302;28;20087;-69
2023/03/13 04:27:48;;;;;;;65.82;12.23;;;5.00;100.00;;;;;;4981938;28;20050;-69
2023/03/13 04:30:15;;;;;;;46.72;10.27;;;5.10;100.00;;;;;;4981007;28;20253;-68
2023/03/13 04:32:44;;;;;;;64.15;11.48;;;5.10;100.00;;;;;;4980559;28;20054;-69
2023/03/13 04:35:11;;;;;;;55.05;9.73;;;5.10;100.00;;;;;;4980821;28;20077;-69
2023/03/13 04:37:38;;;;;;;64.05;11.60;;;5.10;100.00;;;;;;4980162;28;20478;-69
2023/03/13 04:40:06;;;;;;;66.88;12.07;;;5.10;100.00;;;;;;4980213;28;20050;-69
2023/03/13 04:42:32;;;;;;;60.33;12.38;;;5.10;100.00;;;;;;4981170;28;20553;-69
2023/03/13 04:44:59;;;;;;;61.92;10.93;;;5.10;100.00;;;;;;4980265;28;20483;-69
2023/03/13 04:47:26;;;;;;;60.85;11.02;;;5.10;100.00;;;;;;4979932;28;20073;-69
2023/03/13 04:49:53;;;;;;;65.28;11.00;;;5.10;100.00;;;;;;4977863;28;20060;-69
2023/03/13 04:52:19;;;;;;;45.50;10.48;;;5.10;100.00;;;;;;4983052;28;20058;-69
2023/03/13 04:54:46;;;;;;;46.70;10.18;;;5.10;100.00;;;;;;4981958;28;20050;-69
2023/03/13 04:57:13;;;;;;;61.80;10.95;;;5.10;100.00;;;;;;4979935;28;20085;-69
2023/03/13 04:59:40;;;;;;;45.90;10.75;;;5.10;100.00;;;;;;4980104;28;20065;-69
2023/03/13 05:02:11;;;;;;;42.60;10.05;;;5.10;100.00;;;;;;4981758;28;20050;-69
2023/03/13 05:04:38;;;;;;;50.95;10.73;;;5.10;100.00;;;;;;4978495;28;20470;-69
2023/03/13 05:07:05;;;;;;;50.28;9.18;;;5.10;100.00;;;;;;4980587;28;20074;-69
2023/03/13 05:09:32;;;;;;;44.50;9.13;;;5.10;100.00;;;;;;4977855;28;20415;-69
2023/03/13 05:11:59;;;;;;;45.25;9.38;;;5.10;100.00;;;;;;4985809;28;20065;-69
2023/03/13 05:14:26;;;;;;;62.15;8.57;;;5.10;100.00;;;;;;4986132;28;20706;-69
2023/03/13 05:16:53;;;;;;;44.40;9.02;;;5.10;100.00;;;;;;4984728;28;20066;-69
2023/03/13 05:19:19;;;;;;;56.03;9.63;;;5.20;100.00;;;;;;4983335;28;20057;-69
2023/03/13 05:21:46;;;;;;;43.22;8.38;;;5.20;100.00;;;;;;4982860;28;20061;-69
2023/03/13 05:24:13;;;;;;;43.50;9.10;;;5.20;100.00;;;;;;4984763;28;20050;-69
2023/03/13 05:26:40;;;;;;;51.22;8.70;;;5.20;100.00;;;;;;4992028;28;20046;-70
2023/03/13 05:29:06;;;;;;;39.05;8.93;;;5.20;100.00;;;;;;4984324;28;20054;-69
2023/03/13 05:31:33;;;;;;;55.67;9.73;;;5.20;100.00;;;;;;4982865;28;20665;-70
2023/03/13 05:34:00;;;;;;;47.70;7.85;;;5.20;100.00;;;;;;4985639;28;20305;-70
2023/03/13 05:36:27;;;;;;;48.17;8.70;;;5.20;100.00;;;;;;4983716;28;20173;-70
2023/03/13 05:38:54;;;;;;;39.60;9.13;;;5.20;100.00;;;;;;4984132;28;20660;-70
2023/03/13 05:41:21;;;;;;;52.58;7.80;;;5.20;100.00;;;;;;4985611;28;20050;-70
2023/03/13 05:43:47;;;;;;;45.70;7.85;;;5.30;100.00;;;;;;4984417;28;20463;-69
2023/03/13 05:46:14;;;;;;;47.00;8.32;;;5.30;100.00;;;;;;4981325;28;20042;-70
2023/03/13 05:48:41;;;;;;;49.63;8.27;;;5.30;100.00;;;;;;4984419;28;20050;-70
2023/03/13 05:51:08;;;;;;;34.33;7.38;;;5.30;100.00;;;;;;4983882;28;20104;-70
2023/03/13 05:53:35;;;;;;;48.17;7.93;;;5.30;100.00;;;;;;4985028;28;20435;-70
2023/03/13 05:56:01;;;;;;;47.83;8.07;;;5.30;100.00;;;;;;4996402;28;20046;-70
2023/03/13 05:58:28;;;;;;;64.70;9.20;;;5.40;100.00;;;;;;4980726;28;20057;-69
2023/03/13 06:00:55;;;;;;;37.22;7.30;;;5.40;100.00;;;;;;4979826;28;20054;-70
2023/03/13 06:03:22;;;;;;;60.50;8.10;;;5.40;100.00;;;;;;4984095;28;20050;-69
2023/03/13 06:05:49;;;;;;;44.55;8.55;;;5.40;100.00;;;;;;4983651;28;20387;-70
2023/03/13 06:08:15;;;;;;;51.40;8.07;;;5.40;100.00;;;;;;4984246;28;20092;-69
2023/03/13 06:10:42;;;;;;;51.63;8.10;;;5.40;100.00;;;;;;4979911;28;20352;-70
2023/03/13 06:13:09;;;;;;;36.05;7.20;;;5.40;100.00;;;;;;4980198;28;20081;-70
2023/03/13 06:15:53;;;;;;;37.28;7.15;;;5.40;100.00;;;;;;4982970;28;20058;-70
2023/03/13 06:18:21;;;;;;;31.85;7.38;;;5.50;100.00;;;;;;4977125;28;20054;-71
2023/03/13 06:20:49;;;;;;;35.42;7.72;;;5.50;100.00;;;;;;4982954;28;20149;-69
2023/03/13 06:23:16;;;;;;;39.90;6.57;;;5.50;100.00;;;;;;4983359;28;20512;-71
2023/03/13 06:25:47;;;;;;;53.92;7.32;;;5.50;100.00;;;;;;4989335;28;20125;-71
2023/03/13 06:28:14;;;;;;;40.28;7.60;;;5.60;100.00;;;;;;4984020;28;20054;-73
2023/03/13 06:30:42;;;;;;;38.90;7.15;;;5.60;100.00;;;;;;4981182;28;20050;-73
2023/03/13 06:33:08;;;;;;;50.55;8.00;;;5.60;100.00;;;;;;4999905;28;20078;-71
2023/03/13 06:35:39;;;;;;;41.13;7.50;;;5.60;100.00;;;;;;4985958;28;20152;-73
2023/03/13 06:38:22;;;;;;;40.85;8.18;;;5.60;100.00;;;;;;4985161;28;20185;-74
2023/03/13 06:40:49;;;;;;;39.17;7.47;;;5.70;100.00;;;;;;4979940;28;20391;-74
2023/03/13 06:43:15;;;;;;;34.50;6.50;;;5.70;100.00;;;;;;4983431;28;20250;-74
2023/03/13 06:45:42;;;;;;;42.92;8.27;;;5.70;100.00;;;;;;4982028;28;20047;-70
2023/03/13 06:48:09;;;;;;;44.75;6.97;;;5.80;100.00;;;;;;4980576;28;20057;-70
2023/03/13 06:50:40;;;;;;;42.47;8.15;;;5.80;100.00;;;;;;4995227;28;20444;-71
2023/03/13 06:53:12;;;;;;;30.55;7.93;;;5.80;100.00;;;;;;4983844;28;20054;-70
2023/03/13 06:55:40;;;;;;;42.55;6.25;;;5.80;100.00;;;;;;4983446;28;20132;-70
2023/03/13 06:58:06;;;;;;;42.88;6.65;;;5.90;100.00;;;;;;4984063;28;20058;-70
2023/03/13 07:00:38;;;;;;;28.42;6.10;;;6.00;100.00;;;;;;4982441;28;20054;-70
2023/03/13 07:03:05;;;;;;;39.50;6.90;;;6.00;100.00;;;;;;4984299;28;20046;-70
2023/03/13 07:05:32;;;;;;;45.83;6.40;;;6.00;100.00;;;;;;4985457;28;20080;-70
2023/03/13 07:07:59;;;;;;;31.42;5.93;;;6.00;100.00;;;;;;4982933;28;20050;-70
2023/03/13 07:10:26;;;;;;;31.77;6.82;;;6.10;100.00;;;;;;4982483;28;20698;-70
2023/03/13 07:12:53;;;;;;;30.27;6.13;;;6.10;100.00;;;;;;4980345;28;20058;-70
2023/03/13 07:15:19;;;;;;;30.05;5.85;;;6.10;100.00;;;;;;4980136;28;20050;-70
2023/03/13 07:17:46;;;;;;;39.05;6.68;;;6.10;100.00;;;;;;4983694;28;20063;-70
2023/03/13 07:20:13;;;;;;;35.22;5.95;;;6.10;100.00;;;;;;4983452;28;20463;-70
2023/03/13 07:22:43;;;;;;;32.67;6.72;;;6.10;100.00;;;;;;4984327;28;20050;-70
2023/03/13 07:25:10;;;;;;;34.30;6.30;;;6.20;100.00;;;;;;4980795;28;20054;-70
2023/03/13 07:27:37;;;;;;;35.80;6.68;;;6.20;100.00;;;;;;4984390;28;20332;-70
2023/03/13 07:30:04;;;;;;;26.90;5.22;;;6.20;100.00;;;;;;4984161;28;20065;-70
2023/03/13 07:32:32;;;;;;;40.33;6.50;;;6.30;100.00;;;;;;4983657;28;20060;-70
2023/03/13 07:34:59;;;;;;;28.08;6.32;;;6.30;100.00;;;;;;4977688;28;20518;-70
2023/03/13 07:37:25;;;;;;;26.73;5.55;;;6.30;100.00;;;;;;4982970;28;20050;-70
2023/03/13 07:39:52;;;;;;;28.88;5.03;;;6.30;100.00;;;;;;4983265;28;20141;-71
2023/03/13 07:42:19;;;;;;;22.40;4.93;;;6.40;100.00;;;;;;4984176;28;20066;-71
2023/03/13 07:44:46;;;;;;;23.17;4.90;;;6.40;100.00;;;;;;4981533;28;20054;-72
2023/03/13 07:47:12;;;;;;;18.02;4.35;;;6.40;100.00;;;;;;4981758;28;20054;-70
2023/03/13 07:49:42;;;;;;;23.42;4.80;;;6.40;100.00;;;;;;4983464;28;20054;-70
2023/03/13 07:52:09;;;;;;;25.88;4.20;;;6.40;100.00;;;;;;4982330;28;20056;-70
2023/03/13 07:54:36;;;;;;;23.95;4.57;;;6.50;100.00;;;;;;4981490;28;20050;-70
2023/03/13 07:57:03;;;;;;;20.98;5.10;;;6.50;100.00;;;;;;4976627;28;20070;-70
2023/03/13 07:59:30;;;;;;;16.02;4.25;;;6.50;100.00;;;;;;4984093;28;20061;-70
2023/03/13 08:01:56;;;;;;;12.40;3.33;;;6.60;100.00;;;;;;4982703;28;20125;-70
2023/03/13 08:04:23;;;;;;;13.25;3.97;;;6.60;100.00;;;;;;4981395;28;20050;-70
2023/03/13 08:06:51;;;;;;;14.18;3.10;;;6.60;100.00;;;;;;4982800;28;20690;-70
2023/03/13 08:09:17;;;;;;;24.95;5.82;;;6.60;100.00;;;;;;4981368;28;20046;-70
2023/03/13 08:11:44;;;;;;;11.88;3.28;;;6.70;100.00;;;;;;4982247;28;20054;-69
2023/03/13 08:14:11;;;;;;;19.98;4.25;;;6.70;100.00;;;;;;4985345;28;20058;-69
2023/03/13 08:16:38;;;;;;;13.75;3.40;;;6.80;100.00;;;;;;4981773;28;20456;-70
2023/03/13 08:19:05;;;;;;;26.05;4.80;;;6.80;100.00;;;;;;4979776;28;20050;-70
2023/03/13 08:21:36;;;;;;;24.42;4.43;;;6.80;100.00;;;;;;4997423;28;20402;-70
2023/03/13 08:24:06;;;;;;;12.60;3.55;;;6.80;100.00;;;;;;4982648;28;20066;-70
2023/03/13 08:26:35;;;;;;;7.35;2.88;;;6.80;100.00;;;;;;4989053;28;20534;-70
2023/03/13 08:29:05;;;;;;;10.50;3.35;;;6.90;100.00;;;;;;4982107;28;20150;-70
2023/03/13 08:31:35;;;;;;;15.90;3.20;;;6.90;100.00;;;;;;4981965;28;20058;-70
2023/03/13 08:34:02;;;;;;;15.63;3.70;;;7.00;100.00;;;;;;4983497;28;20054;-70
2023/03/13 08:36:36;;;;;;;10.25;4.53;;;7.00;100.00;;;;;;4971314;28;20050;-70
2023/03/13 08:39:06;;;;;;;15.10;4.00;;;7.10;100.00;;;;;;4981947;28;20068;-69
2023/03/13 08:41:35;;;;;;;15.52;3.80;;;7.10;100.00;;;;;;4980707;28;20050;-70
2023/03/13 08:44:05;;;;;;;14.88;3.60;;;7.20;100.00;;;;;;4983792;28;20078;-70
2023/03/13 08:46:35;;;;;;;18.10;3.67;;;7.20;100.00;;;;;;4983530;28;20042;-70
2023/03/13 08:49:03;;;;;;;15.18;3.55;;;7.20;100.00;;;;;;4982273;28;20133;-70
2023/03/13 08:51:30;;;;;;;16.40;4.05;;;7.20;100.00;;;;;;4974818;28;20054;-70
2023/03/13 08:53:57;;;;;;;24.38;3.90;;;7.30;100.00;;;;;;4982858;28;20530;-70
2023/03/13 08:56:27;;;;;;;14.75;3.63;;;7.30;100.00;;;;;;4982740;28;20414;-70
2023/03/13 08:58:59;;;;;;;12.85;3.97;;;7.30;100.00;;;;;;4980816;28;20050;-70
2023/03/13 09:01:29;;;;;;;9.07;3.30;;;7.40;100.00;;;;;;4980823;28;20057;-70
2023/03/13 09:03:56;;;;;;;15.52;3.47;;;7.40;100.00;;;;;;4981937;28;20384;-70
2023/03/13 09:06:23;;;;;;;20.40;3.83;;;7.40;100.00;;;;;;4980092;28;20164;-70
2023/03/13 09:08:50;;;;;;;15.45;3.80;;;7.50;100.00;;;;;;4979736;28;20057;-70
2023/03/13 09:11:19;;;;;;;11.90;3.28;;;7.50;100.00;;;;;;4981126;28;20640;-70
2023/03/13 09:13:48;;;;;;;10.73;3.30;;;7.50;100.00;;;;;;4977398;28;20050;-70
2023/03/13 09:16:21;;;;;;;19.35;4.03;;;7.60;100.00;;;;;;4982043;28;20054;-70
2023/03/13 09:18:49;;;;;;;13.00;4.00;;;7.60;100.00;;;;;;4979785;28;20367;-70
2023/03/13 09:21:18;;;;;;;5.38;2.40;;;7.60;100.00;;;;;;4982821;28;20680;-70
2023/03/13 09:23:46;;;;;;;13.00;3.25;;;7.70;100.00;;;;;;4982728;28;20064;-70
2023/03/13 09:26:13;;;;;;;14.43;3.40;;;7.70;100.00;;;;;;4982743;28;20806;-70
2023/03/13 09:28:43;;;;;;;7.03;2.60;;;7.70;100.00;;;;;;4981508;28;20050;-70
2023/03/13 09:31:13;;;;;;;9.98;2.70;;;7.80;100.00;;;;;;4981634;28;20142;-70
2023/03/13 09:33:42;;;;;;;12.10;3.00;;;7.90;100.00;;;;;;4980719;28;20049;-70
2023/03/13 09:36:10;;;;;;;5.25;2.95;;;7.90;100.00;;;;;;4982462;28;20419;-70
2023/03/13 09:38:38;;;;;;;13.70;2.60;;;7.90;100.00;;;;;;4982697;28;20050;-70
2023/03/13 09:41:33;;;;;;;0.00;0.00;;;8.00;100.00;;;;;;4980488;28;20494;-70
2023/03/13 09:44:09;;;;;;;0.00;0.00;;;8.00;100.00;;;;;;4983310;28;20479;-70
2023/03/13 09:47:03;;;;;;;0.00;0.00;;;8.10;100.00;;;;;;4982750;28;20047;-70
2023/03/13 09:49:44;;;;;;;0.00;0.00;;;8.10;100.00;;;;;;4994646;28;20602;-70
2023/03/13 09:52:18;;;;;;;0.00;0.00;;;8.20;100.00;;;;;;4981328;28;20054;-70
2023/03/13 09:54:54;;;;;;;0.00;0.00;;;8.20;100.00;;;;;;4982605;28;20050;-70
2023/03/13 09:57:34;;;;;;;0.00;0.00;;;8.20;100.00;;;;;;4985844;28;20388;-70
2023/03/13 10:00:28;;;;;;;0.00;0.00;;;8.30;100.00;;;;;;4983215;28;20067;-70
2023/03/13 10:03:06;;;;;;;0.00;0.00;;;8.30;100.00;;;;;;4980480;28;20060;-70
2023/03/13 10:05:33;;;;;;;0.00;0.00;;;8.40;100.00;;;;;;4985027;28;20046;-70
2023/03/13 10:08:18;;;;;;;0.00;0.00;;;8.40;100.00;;;;;;4985842;28;20050;-71
2023/03/13 10:10:57;;;;;;;0.00;0.00;;;8.50;100.00;;;;;;4983209;28;20098;-70
2023/03/13 10:13:37;;;;;;;0.00;0.00;;;8.50;100.00;;;;;;4985570;28;20046;-70
2023/03/13 10:16:27;;;;;;;0.00;0.00;;;8.50;100.00;;;;;;4985570;28;20058;-70
2023/03/13 10:18:58;;;;;;;0.00;0.00;;;8.60;100.00;;;;;;4980321;28;20062;-70
2023/03/13 10:21:33;;;;;;;0.00;0.00;;;8.60;100.00;;;;;;4984727;28;20046;-70
2023/03/13 10:24:09;;;;;;;0.00;0.00;;;8.70;100.00;;;;;;4986261;28;20057;-70
2023/03/13 10:26:37;;;;;;;0.00;0.00;;;8.70;100.00;;;;;;4993765;28;20046;-70
2023/03/13 10:29:25;;;;;;;0.00;0.00;;;8.80;100.00;;;;;;4984591;28;20077;-70
2023/03/13 10:32:01;;;;;;;0.00;0.00;;;8.90;100.00;;;;;;4980774;28;20511;-70
2023/03/13 10:34:45;;;;;;;0.00;0.00;;;9.00;100.00;;;;;;4982951;28;20101;-71
2023/03/13 10:37:20;;;;;;;0.00;0.00;;;9.10;100.00;;;;;;4983452;28;20483;-70
2023/03/13 10:39:46;;;;;;;0.00;0.00;;;9.20;100.00;;;;;;4984155;28;20046;-70
2023/03/13 10:42:34;;;;;;;0.00;0.00;;;9.30;100.00;;;;;;4983850;28;20060;-70
2023/03/13 10:45:04;;;;;;;0.00;0.00;;;9.30;100.00;;;;;;4984698;28;20077;-70
2023/03/13 10:47:34;;;;;;;0.00;0.00;;;9.40;100.00;;;;;;4980053;28;20046;-70
2023/03/13 10:50:03;;;;;;;0.00;0.00;;;9.50;100.00;;;;;;4985332;28;20153;-70
2023/03/13 10:52:34;;;;;;;0.00;0.00;;;9.50;100.00;;;;;;4980659;28;20046;-70
2023/03/13 10:55:05;;;;;;;0.00;0.00;;;9.60;100.00;;;;;;4986030;28;20050;-70
2023/03/13 10:57:35;;;;;;;0.00;0.00;;;9.70;100.00;;;;;;4982230;28;20058;-70
2023/03/13 11:00:22;;;;;;;0.00;0.00;;;9.80;100.00;;;;;;4984226;28;21569;-70
2023/03/13 11:02:49;;;;;;;0.00;0.00;;;9.90;100.00;;;;;;4984321;28;20056;-70
2023/03/13 11:05:29;;;;;;;0.00;0.00;;;10.00;100.00;;;;;;4983698;28;20054;-70
2023/03/13 11:07:56;;;;;;;0.00;0.00;;;10.00;100.00;;;;;;4981902;28;20046;-70
2023/03/13 11:10:28;;;;;;;0.00;0.00;;;10.10;100.00;;;;;;4983305;28;20058;-70
2023/03/13 11:12:57;;;;;;;0.00;0.00;;;10.20;100.00;;;;;;4983021;28;20133;-70
2023/03/13 11:15:30;;;;;;;0.00;0.00;;;10.30;100.00;;;;;;4981812;28;20361;-70
2023/03/13 11:18:20;;;;;;;0.00;0.00;;;10.40;100.00;;;;;;4984866;28;20054;-70
2023/03/13 11:20:48;;;;;;;0.00;0.00;;;10.40;100.00;;;;;;4977299;28;20063;-70
2023/03/13 11:23:14;;;;;;;0.00;0.00;;;10.40;100.00;;;;;;4985154;28;20413;-70
2023/03/13 11:25:50;;;;;;;0.00;0.00;;;10.50;100.00;;;;;;4984378;28;20137;-70
2023/03/13 11:28:39;;;;;;;0.00;0.00;;;10.50;100.00;;;;;;4997532;28;20058;-70
2023/03/13 11:31:06;;;;;;;0.00;0.00;;;10.60;100.00;;;;;;4984058;28;20093;-70
2023/03/13 11:33:46;;;;;;;0.00;0.00;;;10.60;100.00;;;;;;4984648;28;20349;-70
2023/03/13 11:36:27;;;;;;;0.00;0.00;;;10.80;100.00;;;;;;4979026;28;20050;-70
2023/03/13 11:39:12;;;;;;;0.00;0.00;;;10.90;100.00;;;;;;4978492;28;20054;-70
2023/03/13 11:42:11;;;;;;;0.00;0.00;;;11.10;100.00;;;;;;4983989;28;20064;-70
2023/03/13 11:44:50;;;;;;;0.00;0.00;;;11.40;100.00;;;;;;4946525;28;20042;-70
2023/03/13 11:47:32;;;;;;;0.00;0.00;;;11.60;99.90;;;;;;4983003;28;20050;-70
2023/03/13 11:50:22;;;;;;;0.00;0.00;;;11.70;100.00;;;;;;4983987;28;20104;-70
2023/03/13 11:52:52;;;;;;;0.20;0.20;;;12.20;99.10;;;;;;4983612;28;20575;-70
2023/03/13 11:55:57;;;;;;;0.00;0.00;;;12.60;97.50;;;;;;4983147;28;20098;-70
2023/03/13 11:58:29;;;;;;;0.00;0.00;;;13.50;98.50;;;;;;4983014;28;20335;-70
2023/03/13 12:01:06;;;;;;;0.00;0.00;;;14.70;89.40;;;;;;4981558;28;20055;-70
2023/03/13 12:03:58;;;;;;;0.00;0.00;;;15.30;89.20;;;;;;4980795;28;20479;-70
2023/03/13 12:06:43;;;;;;;0.00;0.00;;;15.30;84.50;;;;;;4981215;28;20054;-70
2023/03/13 12:09:44;;;;;;;0.00;0.00;;;14.80;85.80;;;;;;4978751;28;20720;-71
2023/03/13 12:12:46;;;;;;;0.00;0.00;;;14.40;87.00;;;;;;4983379;28;20313;-70
2023/03/13 12:15:13;;;;;;;0.00;0.00;;;15.00;87.20;;;;;;4978946;28;20119;-70
2023/03/13 12:17:48;;;;;;;0.00;0.00;;;15.70;85.10;;;;;;4982081;28;20147;-71
2023/03/13 12:20:26;;;;;;;0.00;0.00;;;15.90;82.00;;;;;;4982276;28;20137;-70
2023/03/13 12:22:53;;;;;;;0.00;0.00;;;15.90;82.40;;;;;;4982439;28;20096;-70
2023/03/13 12:25:37;;;;;;;0.00;0.00;;;15.70;83.50;;;;;;4987759;28;20054;-71
2023/03/13 12:28:37;;;;;;;0.30;0.30;;;15.70;81.40;;;;;;4980636;28;20731;-71
2023/03/13 12:31:19;;;;;;;0.00;0.00;;;15.80;80.40;;;;;;4978311;28;20519;-71
2023/03/13 12:34:17;;;;;;;0.00;0.00;;;15.60;82.30;;;;;;4980563;28;20513;-70
2023/03/13 12:37:01;;;;;;;0.00;0.00;;;15.70;81.00;;;;;;4982508;28;20054;-70
2023/03/13 12:39:31;;;;;;;0.00;0.00;;;15.20;80.90;;;;;;4982179;28;20483;-70
2023/03/13 12:42:38;;;;;;;0.00;0.00;;;15.20;83.80;;;;;;4982867;28;20053;-70
2023/03/13 12:45:07;;;;;;;0.00;0.00;;;16.40;82.70;;;;;;4992011;28;20069;-71
2023/03/13 12:48:07;;;;;;;0.00;0.00;;;17.90;77.60;;;;;;4981685;28;20049;-71
2023/03/13 12:51:12;;;;;;;0.00;0.00;;;19.20;73.30;;;;;;4982633;28;20061;-70
2023/03/13 12:54:20;;;;;;;0.00;0.00;;;19.90;70.70;;;;;;4978059;28;20042;-71
2023/03/13 12:57:05;;;;;;;0.00;0.00;;;20.60;68.50;;;;;;4979594;28;20047;-71